sensor_id;sensor_type;location;lat;lon;timestamp;pressure;altitude;pressure_sealevel;temperature
71649;BMP180;59492;45.638;11.714;2022-10-16T00:01:19;101455.80;;;22.66
71649;BMP180;59492;45.638;11.714;2022-10-16T00:03:45;101457.20;;;22.60
71649;BMP180;59492;45.638;11.714;2022-10-16T00:06:11;101462.60;;;22.60
71649;BMP180;59492;45.638;11.714;2022-10-16T00:08:38;101463.00;;;22.60
71649;BMP180;59492;45.638;11.714;2022-10-16T00:11:07;101456.80;;;22.58
71649;BMP180;59492;45.638;11.714;2022-10-16T00:13:35;101463.80;;;22.52
71649;BMP180;59492;45.638;11.714;2022-10-16T00:16:01;101464.60;;;22.50
71649;BMP180;59492;45.638;11.714;2022-10-16T00:18:28;101465.40;;;22.50
71649;BMP180;59492;45.638;11.714;2022-10-16T00:20:54;101465.20;;;22.48
71649;BMP180;59492;45.638;11.714;2022-10-16T00:23:20;101469.80;;;22.44
71649;BMP180;59492;45.638;11.714;2022-10-16T00:25:58;101469.80;;;22.40
71649;BMP180;59492;45.638;11.714;2022-10-16T00:28:24;101465.60;;;22.40
71649;BMP180;59492;45.638;11.714;2022-10-16T00:30:50;101468.80;;;22.40
71649;BMP180;59492;45.638;11.714;2022-10-16T00:33:15;101468.00;;;22.38
71649;BMP180;59492;45.638;11.714;2022-10-16T00:35:41;101469.40;;;22.34
71649;BMP180;59492;45.638;11.714;2022-10-16T00:38:06;101468.40;;;22.40
71649;BMP180;59492;45.638;11.714;2022-10-16T00:40:32;101468.80;;;22.40
71649;BMP180;59492;45.638;11.714;2022-10-16T00:42:57;101469.00;;;22.40
71649;BMP180;59492;45.638;11.714;2022-10-16T00:45:23;101468.20;;;22.40
71649;BMP180;59492;45.638;11.714;2022-10-16T00:47:50;101467.40;;;22.38
71649;BMP180;59492;45.638;11.714;2022-10-16T00:50:29;101465.60;;;22.32
71649;BMP180;59492;45.638;11.714;2022-10-16T00:52:56;101468.00;;;22.30
71649;BMP180;59492;45.638;11.714;2022-10-16T00:55:23;101473.20;;;22.30
71649;BMP180;59492;45.638;11.714;2022-10-16T00:57:49;101472.80;;;22.26
71649;BMP180;59492;45.638;11.714;2022-10-16T01:00:23;101476.00;;;22.22
71649;BMP180;59492;45.638;11.714;2022-10-16T01:02:53;101478.60;;;22.20
71649;BMP180;59492;45.638;11.714;2022-10-16T01:05:21;101480.80;;;22.20
71649;BMP180;59492;45.638;11.714;2022-10-16T01:08:09;101483.80;;;22.20
71649;BMP180;59492;45.638;11.714;2022-10-16T01:11:00;101482.00;;;22.12
71649;BMP180;59492;45.638;11.714;2022-10-16T01:13:34;101475.60;;;22.10
71649;BMP180;59492;45.638;11.714;2022-10-16T01:16:09;101475.00;;;22.10
71649;BMP180;59492;45.638;11.714;2022-10-16T01:18:56;101474.60;;;22.10
71649;BMP180;59492;45.638;11.714;2022-10-16T01:21:26;101472.40;;;22.04
71649;BMP180;59492;45.638;11.714;2022-10-16T01:24:14;101474.80;;;22.04
71649;BMP180;59492;45.638;11.714;2022-10-16T01:29:26;101478.80;;;22.00
71649;BMP180;59492;45.638;11.714;2022-10-16T01:32:00;101476.60;;;22.10
71649;BMP180;59492;45.638;11.714;2022-10-16T01:34:47;101472.60;;;22.10
71649;BMP180;59492;45.638;11.714;2022-10-16T01:37:27;101473.20;;;22.10
71649;BMP180;59492;45.638;11.714;2022-10-16T01:39:58;101468.40;;;22.06
71649;BMP180;59492;45.638;11.714;2022-10-16T01:42:29;101467.60;;;22.02
71649;BMP180;59492;45.638;11.714;2022-10-16T01:44:57;101470.00;;;22.00
71649;BMP180;59492;45.638;11.714;2022-10-16T01:47:25;101470.80;;;22.00
71649;BMP180;59492;45.638;11.714;2022-10-16T01:49:52;101469.20;;;22.00
71649;BMP180;59492;45.638;11.714;2022-10-16T01:52:23;101465.80;;;22.00
71649;BMP180;59492;45.638;11.714;2022-10-16T01:54:51;101468.40;;;22.00
71649;BMP180;59492;45.638;11.714;2022-10-16T01:57:18;101468.00;;;21.98
71649;BMP180;59492;45.638;11.714;2022-10-16T01:59:50;101478.00;;;21.92
71649;BMP180;59492;45.638;11.714;2022-10-16T02:02:18;101479.80;;;21.90
71649;BMP180;59492;45.638;11.714;2022-10-16T02:04:49;101483.00;;;21.90
71649;BMP180;59492;45.638;11.714;2022-10-16T02:07:17;101481.60;;;21.90
71649;BMP180;59492;45.638;11.714;2022-10-16T02:09:43;101480.60;;;21.90
71649;BMP180;59492;45.638;11.714;2022-10-16T02:12:35;101481.60;;;21.90
71649;BMP180;59492;45.638;11.714;2022-10-16T02:15:02;101486.60;;;21.80
71649;BMP180;59492;45.638;11.714;2022-10-16T02:17:28;101486.60;;;21.70
71649;BMP180;59492;45.638;11.714;2022-10-16T02:19:54;101485.40;;;21.80
71649;BMP180;59492;45.638;11.714;2022-10-16T02:22:28;101484.00;;;21.80
71649;BMP180;59492;45.638;11.714;2022-10-16T02:25:45;101489.40;;;21.80
71649;BMP180;59492;45.638;11.714;2022-10-16T02:28:06;101490.60;;;21.80
71649;BMP180;59492;45.638;11.714;2022-10-16T02:30:39;101489.20;;;21.90
71649;BMP180;59492;45.638;11.714;2022-10-16T02:33:09;101485.00;;;21.90
71649;BMP180;59492;45.638;11.714;2022-10-16T02:35:36;101489.20;;;21.86
71649;BMP180;59492;45.638;11.714;2022-10-16T02:38:03;101491.20;;;21.80
71649;BMP180;59492;45.638;11.714;2022-10-16T02:40:29;101493.00;;;21.80
71649;BMP180;59492;45.638;11.714;2022-10-16T02:42:55;101500.20;;;21.80
71649;BMP180;59492;45.638;11.714;2022-10-16T02:45:22;101505.80;;;21.80
71649;BMP180;59492;45.638;11.714;2022-10-16T02:47:48;101505.40;;;21.80
71649;BMP180;59492;45.638;11.714;2022-10-16T02:50:14;101506.60;;;21.80
71649;BMP180;59492;45.638;11.714;2022-10-16T02:52:40;101507.00;;;21.78
71649;BMP180;59492;45.638;11.714;2022-10-16T02:55:06;101510.00;;;21.78
71649;BMP180;59492;45.638;11.714;2022-10-16T02:57:31;101518.00;;;21.74
71649;BMP180;59492;45.638;11.714;2022-10-16T02:59:58;101518.40;;;21.70
71649;BMP180;59492;45.638;11.714;2022-10-16T03:02:23;101519.60;;;21.70
71649;BMP180;59492;45.638;11.714;2022-10-16T03:04:49;101523.40;;;21.70
71649;BMP180;59492;45.638;11.714;2022-10-16T03:07:14;101524.40;;;21.70
71649;BMP180;59492;45.638;11.714;2022-10-16T03:09:40;101525.20;;;21.70
71649;BMP180;59492;45.638;11.714;2022-10-16T03:12:06;101522.40;;;21.70
71649;BMP180;59492;45.638;11.714;2022-10-16T03:14:32;101522.00;;;21.70
71649;BMP180;59492;45.638;11.714;2022-10-16T03:16:57;101525.00;;;21.72
71649;BMP180;59492;45.638;11.714;2022-10-16T03:19:24;101526.00;;;21.80
71649;BMP180;59492;45.638;11.714;2022-10-16T03:21:49;101524.40;;;21.80
71649;BMP180;59492;45.638;11.714;2022-10-16T03:24:15;101522.00;;;21.74
71649;BMP180;59492;45.638;11.714;2022-10-16T03:26:41;101520.80;;;21.70
71649;BMP180;59492;45.638;11.714;2022-10-16T03:29:07;101516.20;;;21.70
71649;BMP180;59492;45.638;11.714;2022-10-16T03:31:32;101515.60;;;21.70
71649;BMP180;59492;45.638;11.714;2022-10-16T03:33:58;101521.00;;;21.70
71649;BMP180;59492;45.638;11.714;2022-10-16T03:36:24;101519.40;;;21.70
71649;BMP180;59492;45.638;11.714;2022-10-16T03:38:49;101520.60;;;21.68
71649;BMP180;59492;45.638;11.714;2022-10-16T03:41:15;101519.40;;;21.68
71649;BMP180;59492;45.638;11.714;2022-10-16T03:43:41;101516.60;;;21.62
71649;BMP180;59492;45.638;11.714;2022-10-16T03:46:06;101515.60;;;21.60
71649;BMP180;59492;45.638;11.714;2022-10-16T03:48:32;101511.60;;;21.60
71649;BMP180;59492;45.638;11.714;2022-10-16T03:50:58;101516.40;;;21.60
71649;BMP180;59492;45.638;11.714;2022-10-16T03:53:24;101516.80;;;21.60
71649;BMP180;59492;45.638;11.714;2022-10-16T03:55:49;101518.40;;;21.60
71649;BMP180;59492;45.638;11.714;2022-10-16T03:58:16;101519.40;;;21.60
71649;BMP180;59492;45.638;11.714;2022-10-16T04:00:42;101522.60;;;21.60
71649;BMP180;59492;45.638;11.714;2022-10-16T04:03:08;101522.20;;;21.58
71649;BMP180;59492;45.638;11.714;2022-10-16T04:05:34;101523.80;;;21.60
71649;BMP180;59492;45.638;11.714;2022-10-16T04:08:00;101524.40;;;21.70
71649;BMP180;59492;45.638;11.714;2022-10-16T04:10:25;101526.20;;;21.70
71649;BMP180;59492;45.638;11.714;2022-10-16T04:12:51;101530.20;;;21.64
71649;BMP180;59492;45.638;11.714;2022-10-16T04:15:16;101532.40;;;21.60
71649;BMP180;59492;45.638;11.714;2022-10-16T04:17:42;101530.20;;;21.60
71649;BMP180;59492;45.638;11.714;2022-10-16T04:20:08;101531.20;;;21.60
71649;BMP180;59492;45.638;11.714;2022-10-16T04:22:33;101531.40;;;21.60
71649;BMP180;59492;45.638;11.714;2022-10-16T04:24:59;101533.40;;;21.58
71649;BMP180;59492;45.638;11.714;2022-10-16T04:27:24;101537.60;;;21.56
71649;BMP180;59492;45.638;11.714;2022-10-16T04:29:50;101536.80;;;21.52
71649;BMP180;59492;45.638;11.714;2022-10-16T04:32:16;101539.60;;;21.52
71649;BMP180;59492;45.638;11.714;2022-10-16T04:34:41;101543.20;;;21.50
71649;BMP180;59492;45.638;11.714;2022-10-16T04:37:07;101549.80;;;21.50
71649;BMP180;59492;45.638;11.714;2022-10-16T04:39:32;101553.00;;;21.50
71649;BMP180;59492;45.638;11.714;2022-10-16T04:41:58;101549.40;;;21.50
71649;BMP180;59492;45.638;11.714;2022-10-16T04:44:23;101557.20;;;21.50
71649;BMP180;59492;45.638;11.714;2022-10-16T04:46:52;101560.60;;;21.50
71649;BMP180;59492;45.638;11.714;2022-10-16T04:49:17;101561.20;;;21.48
71649;BMP180;59492;45.638;11.714;2022-10-16T04:51:43;101560.60;;;21.46
71649;BMP180;59492;45.638;11.714;2022-10-16T04:54:09;101560.00;;;21.42
71649;BMP180;59492;45.638;11.714;2022-10-16T04:56:35;101561.80;;;21.50
71649;BMP180;59492;45.638;11.714;2022-10-16T04:59:09;101561.80;;;21.54
71649;BMP180;59492;45.638;11.714;2022-10-16T05:01:35;101563.00;;;21.52
71649;BMP180;59492;45.638;11.714;2022-10-16T05:04:00;101568.00;;;21.50
71649;BMP180;59492;45.638;11.714;2022-10-16T05:06:26;101567.40;;;21.50
71649;BMP180;59492;45.638;11.714;2022-10-16T05:08:52;101569.20;;;21.50
71649;BMP180;59492;45.638;11.714;2022-10-16T05:11:17;101569.20;;;21.50
71649;BMP180;59492;45.638;11.714;2022-10-16T05:13:43;101572.00;;;21.48
71649;BMP180;59492;45.638;11.714;2022-10-16T05:16:08;101570.00;;;21.48
71649;BMP180;59492;45.638;11.714;2022-10-16T05:18:34;101572.80;;;21.48
71649;BMP180;59492;45.638;11.714;2022-10-16T05:20:59;101571.40;;;21.44
71649;BMP180;59492;45.638;11.714;2022-10-16T05:23:25;101566.00;;;21.42
71649;BMP180;59492;45.638;11.714;2022-10-16T05:25:55;101572.40;;;21.40
71649;BMP180;59492;45.638;11.714;2022-10-16T05:28:24;101569.60;;;21.40
71649;BMP180;59492;45.638;11.714;2022-10-16T05:30:49;101569.00;;;21.40
71649;BMP180;59492;45.638;11.714;2022-10-16T05:33:15;101569.00;;;21.40
71649;BMP180;59492;45.638;11.714;2022-10-16T05:35:40;101574.60;;;21.40
71649;BMP180;59492;45.638;11.714;2022-10-16T05:38:06;101579.00;;;21.40
71649;BMP180;59492;45.638;11.714;2022-10-16T05:40:31;101580.20;;;21.40
71649;BMP180;59492;45.638;11.714;2022-10-16T05:42:57;101580.80;;;21.40
71649;BMP180;59492;45.638;11.714;2022-10-16T05:45:22;101582.40;;;21.40
71649;BMP180;59492;45.638;11.714;2022-10-16T05:47:48;101588.00;;;21.44
71649;BMP180;59492;45.638;11.714;2022-10-16T05:50:14;101590.60;;;21.50
71649;BMP180;59492;45.638;11.714;2022-10-16T05:52:39;101598.00;;;21.50
71649;BMP180;59492;45.638;11.714;2022-10-16T05:55:05;101601.40;;;21.46
71649;BMP180;59492;45.638;11.714;2022-10-16T05:57:31;101601.80;;;21.44
71649;BMP180;59492;45.638;11.714;2022-10-16T05:59:56;101605.40;;;21.40
71649;BMP180;59492;45.638;11.714;2022-10-16T06:02:22;101609.80;;;21.40
71649;BMP180;59492;45.638;11.714;2022-10-16T06:04:47;101613.00;;;21.40
71649;BMP180;59492;45.638;11.714;2022-10-16T06:07:13;101614.80;;;21.40
71649;BMP180;59492;45.638;11.714;2022-10-16T06:09:39;101614.20;;;21.40
71649;BMP180;59492;45.638;11.714;2022-10-16T06:12:04;101619.40;;;21.40
71649;BMP180;59492;45.638;11.714;2022-10-16T06:14:30;101620.80;;;21.40
71649;BMP180;59492;45.638;11.714;2022-10-16T06:16:55;101625.00;;;21.40
71649;BMP180;59492;45.638;11.714;2022-10-16T06:19:21;101630.80;;;21.40
71649;BMP180;59492;45.638;11.714;2022-10-16T06:21:48;101631.20;;;21.38
71649;BMP180;59492;45.638;11.714;2022-10-16T06:24:13;101636.00;;;21.40
71649;BMP180;59492;45.638;11.714;2022-10-16T06:26:39;101645.20;;;21.40
71649;BMP180;59492;45.638;11.714;2022-10-16T06:29:04;101651.20;;;21.40
71649;BMP180;59492;45.638;11.714;2022-10-16T06:31:30;101650.00;;;21.40
71649;BMP180;59492;45.638;11.714;2022-10-16T06:33:58;101651.60;;;21.40
71649;BMP180;59492;45.638;11.714;2022-10-16T06:36:25;101655.40;;;21.40
71649;BMP180;59492;45.638;11.714;2022-10-16T06:38:51;101663.00;;;21.40
71649;BMP180;59492;45.638;11.714;2022-10-16T06:41:20;101664.20;;;21.48
71649;BMP180;59492;45.638;11.714;2022-10-16T06:43:47;101667.00;;;21.50
71649;BMP180;59492;45.638;11.714;2022-10-16T06:46:15;101669.20;;;21.50
71649;BMP180;59492;45.638;11.714;2022-10-16T06:48:41;101666.60;;;21.50
71649;BMP180;59492;45.638;11.714;2022-10-16T06:51:09;101674.00;;;21.50
71649;BMP180;59492;45.638;11.714;2022-10-16T06:53:37;101681.40;;;21.48
71649;BMP180;59492;45.638;11.714;2022-10-16T06:56:08;101684.40;;;21.46
71649;BMP180;59492;45.638;11.714;2022-10-16T06:58:34;101686.00;;;21.44
71649;BMP180;59492;45.638;11.714;2022-10-16T07:00:59;101687.60;;;21.44
71649;BMP180;59492;45.638;11.714;2022-10-16T07:03:25;101692.40;;;21.42
71649;BMP180;59492;45.638;11.714;2022-10-16T07:05:50;101697.60;;;21.40
71649;BMP180;59492;45.638;11.714;2022-10-16T07:08:16;101699.80;;;21.40
71649;BMP180;59492;45.638;11.714;2022-10-16T07:10:42;101700.00;;;21.40
71649;BMP180;59492;45.638;11.714;2022-10-16T07:13:07;101703.60;;;21.40
71649;BMP180;59492;45.638;11.714;2022-10-16T07:15:33;101706.20;;;21.40
71649;BMP180;59492;45.638;11.714;2022-10-16T07:17:59;101706.00;;;21.40
71649;BMP180;59492;45.638;11.714;2022-10-16T07:20:24;101708.20;;;21.40
71649;BMP180;59492;45.638;11.714;2022-10-16T07:22:50;101709.80;;;21.40
71649;BMP180;59492;45.638;11.714;2022-10-16T07:25:16;101708.80;;;21.40
71649;BMP180;59492;45.638;11.714;2022-10-16T07:27:42;101715.60;;;21.40
71649;BMP180;59492;45.638;11.714;2022-10-16T07:30:08;101716.20;;;21.40
71649;BMP180;59492;45.638;11.714;2022-10-16T07:32:34;101720.20;;;21.48
71649;BMP180;59492;45.638;11.714;2022-10-16T07:34:59;101725.40;;;21.50
71649;BMP180;59492;45.638;11.714;2022-10-16T07:37:25;101733.00;;;21.50
71649;BMP180;59492;45.638;11.714;2022-10-16T07:39:50;101733.20;;;21.64
71649;BMP180;59492;45.638;11.714;2022-10-16T07:42:17;101738.20;;;21.70
71649;BMP180;59492;45.638;11.714;2022-10-16T07:44:42;101739.20;;;21.70
71649;BMP180;59492;45.638;11.714;2022-10-16T07:47:09;101739.00;;;21.70
71649;BMP180;59492;45.638;11.714;2022-10-16T07:49:34;101739.60;;;21.70
71649;BMP180;59492;45.638;11.714;2022-10-16T07:52:01;101745.00;;;21.70
71649;BMP180;59492;45.638;11.714;2022-10-16T07:54:26;101745.80;;;21.70
71649;BMP180;59492;45.638;11.714;2022-10-16T07:56:52;101750.60;;;21.70
71649;BMP180;59492;45.638;11.714;2022-10-16T07:59:18;101750.60;;;21.76
71649;BMP180;59492;45.638;11.714;2022-10-16T08:01:44;101752.80;;;21.80
71649;BMP180;59492;45.638;11.714;2022-10-16T08:04:11;101757.00;;;21.80
71649;BMP180;59492;45.638;11.714;2022-10-16T08:06:38;101759.40;;;21.84
71649;BMP180;59492;45.638;11.714;2022-10-16T08:09:06;101762.40;;;21.90
71649;BMP180;59492;45.638;11.714;2022-10-16T08:11:33;101761.40;;;21.90
71649;BMP180;59492;45.638;11.714;2022-10-16T08:14:00;101768.40;;;21.90
71649;BMP180;59492;45.638;11.714;2022-10-16T08:16:30;101767.80;;;21.94
71649;BMP180;59492;45.638;11.714;2022-10-16T08:18:56;101765.60;;;22.00
71649;BMP180;59492;45.638;11.714;2022-10-16T08:21:23;101763.40;;;22.00
71649;BMP180;59492;45.638;11.714;2022-10-16T08:23:52;101765.60;;;22.10
71649;BMP180;59492;45.638;11.714;2022-10-16T08:26:18;101769.00;;;22.20
71649;BMP180;59492;45.638;11.714;2022-10-16T08:28:44;101770.40;;;22.30
71649;BMP180;59492;45.638;11.714;2022-10-16T08:31:15;101767.00;;;22.38
71649;BMP180;59492;45.638;11.714;2022-10-16T08:33:42;101770.80;;;22.40
71649;BMP180;59492;45.638;11.714;2022-10-16T08:36:10;101774.40;;;22.50
71649;BMP180;59492;45.638;11.714;2022-10-16T08:38:35;101774.80;;;22.58
71649;BMP180;59492;45.638;11.714;2022-10-16T08:47:16;101784.20;;;22.80
71649;BMP180;59492;45.638;11.714;2022-10-16T08:52:18;101791.80;;;22.90
71649;BMP180;59492;45.638;11.714;2022-10-16T08:54:47;101794.40;;;22.90
71649;BMP180;59492;45.638;11.714;2022-10-16T08:57:16;101791.00;;;22.96
71649;BMP180;59492;45.638;11.714;2022-10-16T08:59:42;101787.00;;;23.00
71649;BMP180;59492;45.638;11.714;2022-10-16T09:02:37;101785.40;;;23.00
71649;BMP180;59492;45.638;11.714;2022-10-16T09:15:46;101784.20;;;23.20
71649;BMP180;59492;45.638;11.714;2022-10-16T09:21:30;101791.80;;;23.30
71649;BMP180;59492;45.638;11.714;2022-10-16T09:24:20;101790.80;;;23.40
71649;BMP180;59492;45.638;11.714;2022-10-16T09:26:46;101791.60;;;23.44
71649;BMP180;59492;45.638;11.714;2022-10-16T09:29:15;101792.00;;;23.50
71649;BMP180;59492;45.638;11.714;2022-10-16T09:31:42;101792.20;;;23.60
71649;BMP180;59492;45.638;11.714;2022-10-16T09:36:52;101792.40;;;23.70
71649;BMP180;59492;45.638;11.714;2022-10-16T09:39:17;101791.20;;;23.80
71649;BMP180;59492;45.638;11.714;2022-10-16T09:41:44;101792.60;;;23.80
71649;BMP180;59492;45.638;11.714;2022-10-16T09:44:30;101790.80;;;23.90
71649;BMP180;59492;45.638;11.714;2022-10-16T09:49:28;101794.20;;;24.00
71649;BMP180;59492;45.638;11.714;2022-10-16T09:52:13;101795.80;;;24.00
71649;BMP180;59492;45.638;11.714;2022-10-16T09:54:49;101792.60;;;24.10
71649;BMP180;59492;45.638;11.714;2022-10-16T09:57:15;101787.00;;;24.10
71649;BMP180;59492;45.638;11.714;2022-10-16T09:59:49;101793.60;;;24.20
71649;BMP180;59492;45.638;11.714;2022-10-16T10:02:17;101795.60;;;24.20
71649;BMP180;59492;45.638;11.714;2022-10-16T10:04:52;101789.40;;;24.30
71649;BMP180;59492;45.638;11.714;2022-10-16T10:07:26;101782.80;;;24.30
71649;BMP180;59492;45.638;11.714;2022-10-16T10:09:53;101785.60;;;24.40
71649;BMP180;59492;45.638;11.714;2022-10-16T10:12:23;101783.80;;;24.40
71649;BMP180;59492;45.638;11.714;2022-10-16T10:15:04;101781.20;;;24.40
71649;BMP180;59492;45.638;11.714;2022-10-16T10:17:31;101777.80;;;24.50
71649;BMP180;59492;45.638;11.714;2022-10-16T10:20:01;101777.40;;;24.50
71649;BMP180;59492;45.638;11.714;2022-10-16T10:22:44;101777.80;;;24.50
71649;BMP180;59492;45.638;11.714;2022-10-16T10:35:27;101778.80;;;24.60
71649;BMP180;59492;45.638;11.714;2022-10-16T10:40:52;101771.80;;;24.60
71649;BMP180;59492;45.638;11.714;2022-10-16T10:46:38;101774.40;;;24.60
71649;BMP180;59492;45.638;11.714;2022-10-16T10:49:09;101774.00;;;24.60
71649;BMP180;59492;45.638;11.714;2022-10-16T10:57:00;101761.80;;;24.70
71649;BMP180;59492;45.638;11.714;2022-10-16T10:59:48;101761.80;;;24.70
71649;BMP180;59492;45.638;11.714;2022-10-16T11:02:26;101764.60;;;24.70
71649;BMP180;59492;45.638;11.714;2022-10-16T11:05:23;101763.20;;;24.70
71649;BMP180;59492;45.638;11.714;2022-10-16T11:10:27;101765.00;;;24.70
71649;BMP180;59492;45.638;11.714;2022-10-16T11:12:58;101764.00;;;24.70
71649;BMP180;59492;45.638;11.714;2022-10-16T11:15:35;101763.20;;;24.70
71649;BMP180;59492;45.638;11.714;2022-10-16T11:18:15;101766.40;;;24.70
71649;BMP180;59492;45.638;11.714;2022-10-16T11:21:10;101768.20;;;24.70
71649;BMP180;59492;45.638;11.714;2022-10-16T11:26:17;101768.40;;;24.60
71649;BMP180;59492;45.638;11.714;2022-10-16T11:28:50;101763.00;;;24.60
71649;BMP180;59492;45.638;11.714;2022-10-16T11:34:24;101764.20;;;24.56
71649;BMP180;59492;45.638;11.714;2022-10-16T11:37:23;101762.00;;;24.50
71649;BMP180;59492;45.638;11.714;2022-10-16T11:39:54;101763.00;;;24.50
71649;BMP180;59492;45.638;11.714;2022-10-16T11:42:50;101763.40;;;24.50
71649;BMP180;59492;45.638;11.714;2022-10-16T11:51:08;101759.20;;;24.40
71649;BMP180;59492;45.638;11.714;2022-10-16T11:56:40;101759.40;;;24.40
71649;BMP180;59492;45.638;11.714;2022-10-16T11:59:20;101761.40;;;24.40
71649;BMP180;59492;45.638;11.714;2022-10-16T12:01:52;101758.60;;;24.36
71649;BMP180;59492;45.638;11.714;2022-10-16T12:04:33;101758.00;;;24.34
71649;BMP180;59492;45.638;11.714;2022-10-16T12:07:07;101755.80;;;24.34
71649;BMP180;59492;45.638;11.714;2022-10-16T12:09:40;101754.20;;;24.36
71649;BMP180;59492;45.638;11.714;2022-10-16T12:12:38;101758.20;;;24.34
71649;BMP180;59492;45.638;11.714;2022-10-16T12:15:26;101756.60;;;24.30
71649;BMP180;59492;45.638;11.714;2022-10-16T12:17:56;101759.20;;;24.30
71649;BMP180;59492;45.638;11.714;2022-10-16T12:20:28;101763.20;;;24.30
71649;BMP180;59492;45.638;11.714;2022-10-16T12:23:02;101763.40;;;24.24
71649;BMP180;59492;45.638;11.714;2022-10-16T12:25:31;101765.20;;;24.20
71649;BMP180;59492;45.638;11.714;2022-10-16T12:30:27;101768.20;;;24.20
71649;BMP180;59492;45.638;11.714;2022-10-16T12:33:06;101766.20;;;24.20
71649;BMP180;59492;45.638;11.714;2022-10-16T12:35:45;101766.20;;;24.10
71649;BMP180;59492;45.638;11.714;2022-10-16T12:38:16;101767.60;;;24.10
71649;BMP180;59492;45.638;11.714;2022-10-16T12:40:43;101764.40;;;24.10
71649;BMP180;59492;45.638;11.714;2022-10-16T12:43:26;101763.40;;;24.10
71649;BMP180;59492;45.638;11.714;2022-10-16T12:46:02;101769.40;;;24.10
71649;BMP180;59492;45.638;11.714;2022-10-16T12:48:29;101767.00;;;24.10
71649;BMP180;59492;45.638;11.714;2022-10-16T12:50:55;101768.40;;;24.10
71649;BMP180;59492;45.638;11.714;2022-10-16T12:53:24;101760.40;;;24.10
71649;BMP180;59492;45.638;11.714;2022-10-16T13:00:57;101767.00;;;24.00
71649;BMP180;59492;45.638;11.714;2022-10-16T13:06:34;101768.00;;;23.90
71649;BMP180;59492;45.638;11.714;2022-10-16T13:20:36;101763.60;;;23.80
71649;BMP180;59492;45.638;11.714;2022-10-16T13:23:15;101772.60;;;23.80
71649;BMP180;59492;45.638;11.714;2022-10-16T13:26:00;101772.00;;;23.90
71649;BMP180;59492;45.638;11.714;2022-10-16T13:28:32;101776.00;;;23.90
71649;BMP180;59492;45.638;11.714;2022-10-16T13:30:59;101775.80;;;23.90
71649;BMP180;59492;45.638;11.714;2022-10-16T13:33:33;101776.40;;;23.98
71649;BMP180;59492;45.638;11.714;2022-10-16T13:36:01;101775.40;;;24.00
71649;BMP180;59492;45.638;11.714;2022-10-16T13:38:31;101773.40;;;24.00
71649;BMP180;59492;45.638;11.714;2022-10-16T13:41:11;101778.40;;;24.10
71649;BMP180;59492;45.638;11.714;2022-10-16T13:43:41;101784.00;;;24.10
71649;BMP180;59492;45.638;11.714;2022-10-16T13:46:19;101783.40;;;24.20
71649;BMP180;59492;45.638;11.714;2022-10-16T13:48:57;101784.60;;;24.20
71649;BMP180;59492;45.638;11.714;2022-10-16T13:51:22;101788.60;;;24.28
71649;BMP180;59492;45.638;11.714;2022-10-16T13:53:48;101789.40;;;24.30
71649;BMP180;59492;45.638;11.714;2022-10-16T13:56:16;101791.40;;;24.40
71649;BMP180;59492;45.638;11.714;2022-10-16T13:58:42;101791.80;;;24.40
71649;BMP180;59492;45.638;11.714;2022-10-16T14:01:17;101793.80;;;24.40
71649;BMP180;59492;45.638;11.714;2022-10-16T14:03:44;101789.20;;;24.50
71649;BMP180;59492;45.638;11.714;2022-10-16T14:06:19;101789.60;;;24.50
71649;BMP180;59492;45.638;11.714;2022-10-16T14:09:06;101790.60;;;24.52
71649;BMP180;59492;45.638;11.714;2022-10-16T14:11:33;101792.40;;;24.60
71649;BMP180;59492;45.638;11.714;2022-10-16T14:14:02;101791.20;;;24.60
71649;BMP180;59492;45.638;11.714;2022-10-16T14:16:30;101793.00;;;24.64
71649;BMP180;59492;45.638;11.714;2022-10-16T14:19:04;101793.40;;;24.70
71649;BMP180;59492;45.638;11.714;2022-10-16T14:21:32;101793.00;;;24.70
71649;BMP180;59492;45.638;11.714;2022-10-16T14:23:58;101795.60;;;24.70
71649;BMP180;59492;45.638;11.714;2022-10-16T14:26:26;101796.20;;;24.80
71649;BMP180;59492;45.638;11.714;2022-10-16T14:29:17;101794.00;;;24.80
71649;BMP180;59492;45.638;11.714;2022-10-16T14:31:56;101789.00;;;24.80
71649;BMP180;59492;45.638;11.714;2022-10-16T14:34:27;101791.80;;;24.80
71649;BMP180;59492;45.638;11.714;2022-10-16T14:36:55;101791.40;;;24.86
71649;BMP180;59492;45.638;11.714;2022-10-16T14:39:21;101787.40;;;24.90
71649;BMP180;59492;45.638;11.714;2022-10-16T14:41:49;101786.60;;;24.90
71649;BMP180;59492;45.638;11.714;2022-10-16T14:44:17;101786.20;;;24.90
71649;BMP180;59492;45.638;11.714;2022-10-16T14:46:44;101789.20;;;24.90
71649;BMP180;59492;45.638;11.714;2022-10-16T14:51:37;101788.80;;;24.96
71649;BMP180;59492;45.638;11.714;2022-10-16T14:54:04;101791.00;;;25.00
71649;BMP180;59492;45.638;11.714;2022-10-16T14:56:42;101792.80;;;25.00
71649;BMP180;59492;45.638;11.714;2022-10-16T14:59:15;101791.20;;;24.98
71649;BMP180;59492;45.638;11.714;2022-10-16T15:01:42;101789.80;;;25.00
71649;BMP180;59492;45.638;11.714;2022-10-16T15:04:10;101790.00;;;24.90
71649;BMP180;59492;45.638;11.714;2022-10-16T15:06:36;101786.80;;;24.98
71649;BMP180;59492;45.638;11.714;2022-10-16T15:09:03;101787.00;;;25.00
71649;BMP180;59492;45.638;11.714;2022-10-16T15:11:29;101784.80;;;25.00
71649;BMP180;59492;45.638;11.714;2022-10-16T15:13:56;101789.80;;;25.00
71649;BMP180;59492;45.638;11.714;2022-10-16T15:16:22;101793.60;;;25.04
71649;BMP180;59492;45.638;11.714;2022-10-16T15:18:47;101791.00;;;25.00
71649;BMP180;59492;45.638;11.714;2022-10-16T15:21:24;101791.60;;;25.00
71649;BMP180;59492;45.638;11.714;2022-10-16T15:23:51;101791.20;;;25.00
71649;BMP180;59492;45.638;11.714;2022-10-16T15:26:17;101789.80;;;25.00
71649;BMP180;59492;45.638;11.714;2022-10-16T15:28:43;101790.80;;;24.96
71649;BMP180;59492;45.638;11.714;2022-10-16T15:31:08;101788.40;;;24.90